Time;durP1;ratioP1;P1;durP2;ratioP2;P2;SDS_P1;SDS_P2;PMS_P1;PMS_P2;Temp;Humidity;BMP_temperature;BMP_pressure;BME280_temperature;BME280_humidity;BME280_pressure;Samples;Min_cycle;Max_cycle;Signal;HPM_P1;HPM_P2
2022/01/26 00:07:28;;;;;;;16.17;8.23;;;;;;;-0.51;100.00;100021.97;4169381;28;20462;-71
2022/01/26 00:09:29;;;;;;;15.15;8.05;;;;;;;-0.51;100.00;100028.22;4169491;28;20057;-71
2022/01/26 00:11:31;;;;;;;18.58;8.57;;;;;;;-0.54;100.00;100019.78;4169797;28;20147;-71
2022/01/26 00:13:31;;;;;;;17.75;7.03;;;;;;;-0.58;100.00;100017.63;4169326;28;20053;-71
2022/01/26 00:15:32;;;;;;;17.13;8.13;;;;;;;-0.57;100.00;100015.72;4169682;28;20047;-71
2022/01/26 00:17:32;;;;;;;17.10;8.50;;;;;;;-0.60;100.00;100011.59;4168930;28;20666;-71
2022/01/26 00:19:48;;;;;;;14.90;6.60;;;;;;;-0.53;100.00;100022.25;4169360;28;20207;-71
2022/01/26 00:28:19;;;;;;;16.38;8.13;;;;;;;-0.66;100.00;100020.03;4168767;28;20041;-71
2022/01/26 00:39:40;;;;;;;13.18;6.97;;;;;;;-0.68;100.00;100011.31;4171811;28;20087;-71
2022/01/26 00:41:41;;;;;;;17.77;8.35;;;;;;;-0.69;100.00;100010.50;4173119;28;20428;-71
2022/01/26 00:43:51;;;;;;;15.25;7.72;;;;;;;-0.72;100.00;100008.31;4172091;28;20045;-71
2022/01/26 00:45:56;;;;;;;17.40;8.23;;;;;;;-0.67;100.00;100015.66;4173017;28;20244;-71
2022/01/26 00:47:57;;;;;;;17.55;8.40;;;;;;;-0.69;100.00;100006.97;4172234;28;20049;-71
2022/01/26 00:50:02;;;;;;;14.07;7.15;;;;;;;-0.71;100.00;100011.84;4172888;28;20455;-71
2022/01/26 00:52:06;;;;;;;15.35;7.68;;;;;;;-0.71;100.00;100009.13;4172309;28;20045;-71
2022/01/26 00:54:08;;;;;;;13.35;6.93;;;;;;;-0.70;100.00;100002.63;4172550;28;20029;-71
2022/01/26 00:56:10;;;;;;;18.80;10.02;;;;;;;-0.72;100.00;99997.44;4172612;28;20117;-71
2022/01/26 00:58:10;;;;;;;15.32;7.50;;;;;;;-0.75;100.00;99997.97;4171394;28;20032;-71
2022/01/26 01:00:21;;;;;;;15.52;7.40;;;;;;;-0.74;100.00;99996.91;4172530;28;20395;-71
2022/01/26 01:02:22;;;;;;;17.50;8.38;;;;;;;-0.67;100.00;100002.06;4172424;28;20083;-71
2022/01/26 01:04:22;;;;;;;16.23;7.63;;;;;;;-0.66;100.00;100004.53;4172291;28;20041;-71
2022/01/26 01:06:28;;;;;;;15.15;7.43;;;;;;;-0.66;100.00;100003.72;4172239;28;20055;-71
2022/01/26 01:08:29;;;;;;;16.17;8.15;;;;;;;-0.70;100.00;99998.00;4171756;28;20200;-71
2022/01/26 01:10:30;;;;;;;11.90;6.55;;;;;;;-0.68;100.00;100001.25;4172396;28;20053;-71
2022/01/26 01:12:33;;;;;;;11.93;6.40;;;;;;;-0.66;100.00;100004.53;4171997;28;20071;-71
2022/01/26 01:14:37;;;;;;;18.55;8.32;;;;;;;-0.65;100.00;99998.03;4172268;28;20385;-71
2022/01/26 01:16:37;;;;;;;25.63;12.52;;;;;;;-0.62;100.00;100005.63;4171604;28;20045;-71
2022/01/26 01:29:41;;;;;;;25.60;10.38;;;;;;;-0.69;100.00;100015.13;4171836;28;20576;-71
2022/01/26 01:33:46;;;;;;;44.75;15.65;;;;;;;-0.74;100.00;100020.56;4171568;28;20048;-71
2022/01/26 01:35:48;;;;;;;19.75;10.15;;;;;;;-0.76;100.00;100023.50;4170759;28;20049;-71
2022/01/26 01:37:49;;;;;;;17.08;8.75;;;;;;;-0.77;100.00;100019.16;4170610;28;20053;-71
2022/01/26 01:39:50;;;;;;;14.40;7.43;;;;;;;-0.74;100.00;100028.72;4172003;28;20056;-71
2022/01/26 01:41:51;;;;;;;16.75;8.45;;;;;;;-0.75;100.00;100025.16;4171283;28;20429;-71
2022/01/26 01:43:51;;;;;;;18.05;9.23;;;;;;;-0.71;100.00;100026.25;4171900;28;20467;-71
2022/01/26 01:45:53;;;;;;;14.93;7.97;;;;;;;-0.69;100.00;100015.13;4171727;28;20040;-71
2022/01/26 01:47:53;;;;;;;20.33;9.27;;;;;;;-0.70;100.00;100017.03;4171369;28;20512;-71
2022/01/26 01:49:54;;;;;;;19.15;9.48;;;;;;;-0.73;100.00;100012.13;4171928;28;20045;-71
2022/01/26 01:51:59;;;;;;;17.05;8.20;;;;;;;-0.66;100.00;100017.31;4171982;28;20085;-71
2022/01/26 01:54:00;;;;;;;18.50;8.63;;;;;;;-0.67;100.00;100030.06;4171568;28;20424;-70
2022/01/26 02:07:47;;;;;;;18.95;8.75;;;;;;;-0.63;100.00;100023.03;4170891;28;20075;-72
2022/01/26 02:09:47;;;;;;;15.30;7.93;;;;;;;-0.66;100.00;100026.28;4171101;28;20045;-71
2022/01/26 02:11:53;;;;;;;16.27;8.18;;;;;;;-0.64;100.00;100024.13;4171657;28;20190;-71
2022/01/26 02:55:24;;;;;;;18.13;8.48;;;;;;;-0.94;100.00;99980.50;4170667;28;20048;-72
2022/01/26 03:05:56;;;;;;;31.30;13.50;;;;;;;-1.02;100.00;99976.41;4170549;28;20048;-72
2022/01/26 03:08:02;;;;;;;28.23;13.43;;;;;;;-1.03;100.00;99976.66;4169118;28;20053;-72
2022/01/26 03:10:13;;;;;;;17.50;9.27;;;;;;;-0.95;100.00;99978.88;4170510;28;20075;-72
2022/01/26 03:12:21;;;;;;;14.80;7.63;;;;;;;-0.96;100.00;99969.09;4170578;28;20040;-72
2022/01/26 03:14:33;;;;;;;19.17;9.02;;;;;;;-1.01;100.00;99964.44;4170688;28;20510;-72
2022/01/26 03:16:41;;;;;;;16.27;8.25;;;;;;;-1.00;100.00;99968.78;4169307;28;20064;-71
2022/01/26 03:21:03;;;;;;;20.85;8.90;;;;;;;-1.03;100.00;99979.38;4169966;28;20075;-71
2022/01/26 03:30:27;;;;;;;19.58;8.13;;;;;;;-1.05;100.00;99970.69;4170182;28;20056;-71
2022/01/26 03:34:38;;;;;;;22.67;9.82;;;;;;;-1.00;100.00;99962.53;4170199;28;20048;-71
2022/01/26 03:36:58;;;;;;;17.25;8.80;;;;;;;-1.01;100.00;99961.72;4169232;28;20377;-71
2022/01/26 03:39:04;;;;;;;19.05;8.70;;;;;;;-1.00;100.00;99962.53;4170314;28;20045;-71
2022/01/26 03:43:18;;;;;;;18.17;8.82;;;;;;;-0.99;100.00;99956.06;4167214;28;20335;-71
2022/01/26 03:45:18;;;;;;;18.95;8.98;;;;;;;-0.99;100.00;99956.88;4167145;28;20104;-71
2022/01/26 03:47:19;;;;;;;24.60;9.95;;;;;;;-1.02;100.00;99946.53;4164089;28;20377;-72
2022/01/26 03:49:19;;;;;;;19.33;9.02;;;;;;;-1.01;100.00;99952.78;4166371;28;20480;-72
2022/01/26 03:51:19;;;;;;;18.48;8.80;;;;;;;-0.98;100.00;99953.06;4169492;28;20389;-72
2022/01/26 03:53:20;;;;;;;20.58;9.05;;;;;;;-1.00;100.00;99946.25;4169288;28;20382;-72
2022/01/26 03:55:20;;;;;;;16.45;7.72;;;;;;;-0.99;100.00;99946.00;4169801;28;20168;-72
2022/01/26 03:57:20;;;;;;;23.48;9.00;;;;;;;-0.96;100.00;99947.38;4168877;28;20618;-72
2022/01/26 03:59:21;;;;;;;19.85;8.70;;;;;;;-0.91;100.00;99948.22;4169748;28;20068;-72
2022/01/26 04:01:22;;;;;;;20.35;9.63;;;;;;;-0.93;100.00;99942.19;4167657;28;20395;-72
2022/01/26 04:03:22;;;;;;;19.08;9.93;;;;;;;-0.95;100.00;99938.13;4169777;28;20043;-72
2022/01/26 04:05:23;;;;;;;18.42;9.60;;;;;;;-0.94;100.00;99946.00;4168828;28;20123;-72
2022/01/26 04:07:24;;;;;;;23.25;9.27;;;;;;;-0.97;100.00;99934.88;4169168;28;20386;-72
2022/01/26 04:09:24;;;;;;;19.33;9.25;;;;;;;-0.95;100.00;99940.84;4169636;28;20045;-72
2022/01/26 04:11:35;;;;;;;23.35;10.27;;;;;;;-0.90;100.00;99949.84;4167489;28;20069;-72
2022/01/26 04:13:36;;;;;;;22.08;10.38;;;;;;;-0.94;100.00;99945.19;4165870;28;20077;-72
2022/01/26 04:15:37;;;;;;;19.80;9.65;;;;;;;-0.94;100.00;99951.44;4168145;28;20118;-72
2022/01/26 04:17:38;;;;;;;20.23;9.48;;;;;;;-0.98;100.00;99944.91;4169026;28;20124;-72
2022/01/26 04:19:40;;;;;;;19.42;9.43;;;;;;;-0.98;100.00;99944.09;4167960;28;20140;-72
2022/01/26 04:21:57;;;;;;;23.10;9.80;;;;;;;-1.06;100.00;99936.47;4167013;28;20049;-71
2022/01/26 04:24:06;;;;;;;20.92;9.60;;;;;;;-1.09;100.00;99934.25;4162655;28;20094;-71
2022/01/26 04:26:06;;;;;;;18.08;8.82;;;;;;;-1.06;100.00;99945.44;4163273;28;20079;-72
2022/01/26 04:28:11;;;;;;;21.35;9.45;;;;;;;-1.04;100.00;99947.88;4165385;28;20068;-72
2022/01/26 04:30:11;;;;;;;21.25;9.63;;;;;;;-1.03;100.00;99958.47;4167378;28;20033;-72
2022/01/26 04:32:14;;;;;;;20.83;9.45;;;;;;;-1.04;100.00;99956.03;4168704;28;20029;-72
2022/01/26 04:34:15;;;;;;;21.88;9.70;;;;;;;-0.97;100.00;99960.13;4167384;28;20036;-72
2022/01/26 04:36:22;;;;;;;24.50;11.13;;;;;;;-0.99;100.00;99954.16;4168419;28;20508;-72
2022/01/26 04:38:47;;;;;;;21.55;10.48;;;;;;;-1.05;100.00;99952.50;4166795;28;20124;-72
2022/01/26 04:43:02;;;;;;;20.83;9.82;;;;;;;-1.09;100.00;99926.94;4167362;28;20481;-72
2022/01/26 04:45:08;;;;;;;20.77;10.55;;;;;;;-1.05;100.00;99940.81;4168700;28;20052;-72
2022/01/26 04:47:08;;;;;;;23.38;9.15;;;;;;;-1.05;100.00;99927.22;4166678;28;20452;-72
2022/01/26 04:49:08;;;;;;;20.52;9.15;;;;;;;-1.05;100.00;99936.19;4167037;28;20485;-72
2022/01/26 04:51:09;;;;;;;25.38;11.07;;;;;;;-1.05;100.00;99927.22;4166425;28;20140;-72
2022/01/26 04:53:09;;;;;;;20.73;9.85;;;;;;;-1.02;100.00;99919.34;4168494;28;20068;-72
2022/01/26 04:55:09;;;;;;;23.90;10.00;;;;;;;-1.05;100.00;99919.91;4168096;28;20079;-72
2022/01/26 04:57:10;;;;;;;23.40;9.85;;;;;;;-1.03;100.00;99920.44;4167362;28;20547;-72
2022/01/26 04:59:10;;;;;;;16.42;8.98;;;;;;;-1.06;100.00;99907.41;4168295;28;20041;-72
2022/01/26 05:01:10;;;;;;;21.15;9.80;;;;;;;-1.07;100.00;99908.50;4166898;28;20047;-72
2022/01/26 05:03:11;;;;;;;21.05;9.80;;;;;;;-1.03;100.00;99911.47;4168076;28;20080;-71
2022/01/26 05:05:12;;;;;;;20.15;9.48;;;;;;;-1.08;100.00;99904.13;4167997;28;20056;-71
2022/01/26 05:07:12;;;;;;;22.80;10.82;;;;;;;-1.10;100.00;99903.56;4167056;28;20117;-71
2022/01/26 05:09:12;;;;;;;19.02;9.73;;;;;;;-1.01;100.00;99920.16;4167908;28;20126;-71
2022/01/26 05:11:19;;;;;;;24.23;10.00;;;;;;;-1.04;100.00;99921.53;4166232;28;20053;-72
2022/01/26 05:13:19;;;;;;;19.95;9.55;;;;;;;-1.06;100.00;99918.28;4167884;28;20142;-72
2022/01/26 05:15:22;;;;;;;23.40;10.15;;;;;;;-1.08;100.00;99917.69;4165172;28;20060;-72
2022/01/26 05:17:24;;;;;;;23.48;11.13;;;;;;;-1.06;100.00;99918.28;4166040;28;20513;-72
2022/01/26 05:19:24;;;;;;;21.77;10.70;;;;;;;-1.05;100.00;99909.03;4168325;28;20374;-72
2022/01/26 05:21:26;;;;;;;20.48;9.90;;;;;;;-1.04;100.00;99902.50;4168810;28;20041;-72
2022/01/26 05:23:26;;;;;;;21.77;10.68;;;;;;;-1.04;100.00;99901.69;4167758;28;20061;-72
2022/01/26 05:25:27;;;;;;;21.30;10.52;;;;;;;-1.04;100.00;99901.69;4171709;28;20489;-72
2022/01/26 05:27:27;;;;;;;20.20;9.77;;;;;;;-1.02;100.00;99897.63;4171060;28;20044;-72
2022/01/26 05:29:27;;;;;;;19.15;9.68;;;;;;;-1.00;100.00;99900.06;4172393;28;20060;-72
2022/01/26 05:31:28;;;;;;;23.08;11.50;;;;;;;-0.99;100.00;99907.97;4172016;28;20118;-72
2022/01/26 05:33:28;;;;;;;21.00;10.07;;;;;;;-1.00;100.00;99913.66;4170048;28;20401;-72
2022/01/26 05:35:28;;;;;;;22.25;10.20;;;;;;;-1.01;100.00;99904.69;4168270;28;20881;-72
2022/01/26 05:37:29;;;;;;;23.23;10.98;;;;;;;-1.00;100.00;99894.63;4170451;28;20280;-72
2022/01/26 05:39:31;;;;;;;27.85;12.60;;;;;;;-0.98;100.00;99890.59;4170396;28;20508;-72
2022/01/26 05:41:32;;;;;;;31.50;14.80;;;;;;;-1.00;100.00;99887.28;4171175;28;20060;-72
2022/01/26 05:43:33;;;;;;;25.67;12.05;;;;;;;-1.08;100.00;99887.81;4171781;28;20049;-72
2022/01/26 05:45:37;;;;;;;23.00;11.45;;;;;;;-0.98;100.00;99895.19;4171460;28;20068;-72
2022/01/26 05:47:38;;;;;;;20.20;9.85;;;;;;;-0.99;100.00;99893.56;4170530;28;20875;-72
2022/01/26 05:49:38;;;;;;;24.45;11.02;;;;;;;-1.01;100.00;99893.81;4171293;28;20041;-72
2022/01/26 05:51:40;;;;;;;24.08;11.50;;;;;;;-1.01;100.00;99914.72;4171835;28;20615;-72
2022/01/26 05:53:40;;;;;;;19.90;10.68;;;;;;;-1.06;100.00;99909.31;4171607;28;20455;-72
2022/01/26 05:55:40;;;;;;;21.48;10.70;;;;;;;-1.07;100.00;99905.78;4172034;28;20045;-72
2022/01/26 05:57:41;;;;;;;19.80;10.15;;;;;;;-1.05;100.00;99910.94;4170996;28;20053;-72
2022/01/26 05:59:41;;;;;;;20.65;10.57;;;;;;;-1.11;100.00;99899.22;4171659;28;20091;-72
2022/01/26 06:01:41;;;;;;;22.52;11.10;;;;;;;-1.13;100.00;99902.22;4171599;28;20178;-72
2022/01/26 06:03:42;;;;;;;23.20;10.18;;;;;;;-1.09;100.00;99910.63;4171235;28;20041;-72
2022/01/26 06:05:42;;;;;;;20.20;9.88;;;;;;;-1.08;100.00;99897.88;4171580;28;20045;-72
2022/01/26 06:07:42;;;;;;;20.05;10.23;;;;;;;-1.11;100.00;99904.66;4170590;28;20481;-72
2022/01/26 06:09:43;;;;;;;19.98;9.63;;;;;;;-1.05;100.00;99919.09;4171471;28;20085;-71
2022/01/26 06:11:43;;;;;;;21.27;9.05;;;;;;;-1.07;100.00;99918.53;4171646;28;20087;-71
2022/01/26 06:13:43;;;;;;;20.63;9.23;;;;;;;-1.06;100.00;99928.31;4171241;28;20050;-71
2022/01/26 06:15:44;;;;;;;34.85;15.63;;;;;;;-1.05;100.00;99921.81;4171331;28;20172;-71
2022/01/26 06:17:45;;;;;;;33.75;17.33;;;;;;;-1.08;100.00;99941.31;4170627;28;20037;-71
2022/01/26 06:19:45;;;;;;;25.42;13.25;;;;;;;-1.13;100.00;99942.97;4171570;28;20037;-71
2022/01/26 06:21:45;;;;;;;18.50;8.73;;;;;;;-1.11;100.00;99931.81;4171263;28;20122;-71
2022/01/26 06:23:47;;;;;;;21.52;9.30;;;;;;;-1.17;100.00;99949.16;4171759;28;20698;-71
2022/01/26 06:25:49;;;;;;;19.67;9.63;;;;;;;-1.25;100.00;99936.09;4171329;28;20324;-71
2022/01/26 06:27:52;;;;;;;;;;;;;;;-1.26;100.00;99946.16;4171023;28;20401;-71
2022/01/26 06:29:52;;;;;;;21.00;8.82;;;;;;;-1.30;100.00;99938.81;4171012;28;19920;-72
2022/01/26 06:31:53;;;;;;;21.50;8.80;;;;;;;-1.31;100.00;99956.19;4171016;28;20047;-72
2022/01/26 06:33:53;;;;;;;21.15;9.45;;;;;;;-1.32;100.00;99960.81;4170662;28;20303;-72
2022/01/26 06:35:56;;;;;;;22.20;9.00;;;;;;;-1.30;100.00;99946.94;4170234;28;20056;-72
2022/01/26 06:37:56;;;;;;;15.98;7.85;;;;;;;-1.25;100.00;99952.38;4169377;28;20080;-72
2022/01/26 06:39:57;;;;;;;19.00;8.40;;;;;;;-1.28;100.00;99940.16;4171299;28;20305;-72
2022/01/26 06:41:58;;;;;;;23.23;8.25;;;;;;;-1.24;100.00;99943.16;4170733;28;20364;-72
2022/01/26 06:44:05;;;;;;;17.40;7.80;;;;;;;-1.24;100.00;99938.56;4171074;28;20037;-71
2022/01/26 06:46:08;;;;;;;16.25;8.00;;;;;;;-1.18;100.00;99937.50;4170353;28;20401;-72
2022/01/26 06:50:11;;;;;;;19.33;8.95;;;;;;;-1.24;100.00;99927.72;4171037;28;20036;-72
2022/01/26 06:52:11;;;;;;;19.55;9.80;;;;;;;-1.24;100.00;99938.56;4170669;28;20489;-72
2022/01/26 06:54:11;;;;;;;22.38;10.13;;;;;;;-1.24;100.00;99930.44;4170823;28;20064;-72
2022/01/26 06:56:12;;;;;;;27.88;11.77;;;;;;;-1.21;100.00;99929.88;4170647;28;20078;-72
2022/01/26 06:58:12;;;;;;;26.88;11.07;;;;;;;-1.21;100.00;99934.50;4170078;28;20067;-72
2022/01/26 07:00:13;;;;;;;24.25;10.00;;;;;;;-1.18;100.00;99929.34;4170230;28;20043;-72
2022/01/26 07:02:14;;;;;;;23.23;11.00;;;;;;;-1.19;100.00;99935.03;4170820;28;20120;-72
2022/01/26 07:04:14;;;;;;;22.75;10.15;;;;;;;-1.18;100.00;99937.50;4170786;28;20063;-72
2022/01/26 07:06:14;;;;;;;22.08;9.93;;;;;;;-1.19;100.00;99929.63;4170919;28;20052;-72
2022/01/26 07:08:15;;;;;;;41.13;11.05;;;;;;;-1.23;100.00;99920.38;4169602;28;20115;-72
2022/01/26 07:10:16;;;;;;;21.60;9.35;;;;;;;-1.18;100.00;99929.34;4170834;28;20040;-72
2022/01/26 07:12:16;;;;;;;23.83;10.43;;;;;;;-1.20;100.00;99911.69;4170618;28;20037;-72
2022/01/26 07:19:46;;;;;;;19.15;9.07;;;;;;;-1.23;100.00;99902.19;4170161;28;20029;-72
2022/01/26 07:21:26;;;;;;;21.10;9.25;;;;;;;-1.24;100.00;99886.97;4169888;28;20052;-72
2022/01/26 07:23:27;;;;;;;24.25;10.60;;;;;;;-1.23;100.00;99893.22;4170244;28;20489;-72
2022/01/26 07:25:27;;;;;;;24.33;10.35;;;;;;;-1.26;100.00;99904.59;4170435;28;20151;-72
2022/01/26 07:27:27;;;;;;;22.48;10.43;;;;;;;-1.19;100.00;99911.41;4169864;28;20408;-72
2022/01/26 07:29:28;;;;;;;25.75;10.93;;;;;;;-1.20;100.00;99911.69;4169677;28;20045;-72
2022/01/26 07:31:28;;;;;;;34.85;10.77;;;;;;;-1.20;100.00;99904.34;4170249;28;20041;-71
2022/01/26 07:33:29;;;;;;;26.52;11.55;;;;;;;-1.20;100.00;99896.22;4170626;28;20083;-72
2022/01/26 07:35:29;;;;;;;25.55;10.98;;;;;;;-1.21;100.00;99900.00;4170198;28;20099;-72
2022/01/26 07:37:29;;;;;;;23.40;11.05;;;;;;;-1.19;100.00;99899.75;4169299;28;20061;-72
2022/01/26 07:39:41;;;;;;;25.83;10.45;;;;;;;-1.23;100.00;99902.19;4170178;28;20389;-72
2022/01/26 07:41:42;;;;;;;24.95;10.63;;;;;;;-1.16;100.00;99907.34;4170004;28;20045;-72
2022/01/26 07:43:42;;;;;;;27.92;10.40;;;;;;;-1.10;100.00;99913.63;4170391;28;20081;-72
2022/01/26 07:45:43;;;;;;;25.55;9.43;;;;;;;-1.20;100.00;99898.09;4169210;28;20041;-72
2022/01/26 07:47:43;;;;;;;20.15;8.93;;;;;;;-1.16;100.00;99905.47;4169179;28;20045;-72
2022/01/26 07:49:44;;;;;;;28.42;11.80;;;;;;;-1.16;100.00;99910.91;4169856;28;20583;-72
2022/01/26 07:51:47;;;;;;;25.95;11.23;;;;;;;-1.09;100.00;99907.91;4170162;28;20056;-71
2022/01/26 07:53:48;;;;;;;28.67;10.98;;;;;;;-1.08;100.00;99904.13;4169700;28;20041;-71
2022/01/26 07:55:49;;;;;;;25.23;10.73;;;;;;;-1.11;100.00;99899.22;4169802;28;20400;-71
2022/01/26 07:57:51;;;;;;;24.17;10.23;;;;;;;-1.10;100.00;99897.31;4169291;28;20044;-71
2022/01/26 07:59:52;;;;;;;25.23;9.93;;;;;;;-1.11;100.00;99907.38;4169723;28;20115;-72
2022/01/26 08:01:53;;;;;;;27.83;10.55;;;;;;;-1.14;100.00;99903.28;4169696;28;20045;-72
2022/01/26 08:03:53;;;;;;;26.02;10.75;;;;;;;-1.11;100.00;99903.84;4169655;28;20044;-72
2022/01/26 08:05:53;;;;;;;29.35;9.80;;;;;;;-1.12;100.00;99892.16;4170198;28;20049;-72
2022/01/26 08:07:54;;;;;;;23.58;10.32;;;;;;;-1.15;100.00;99888.09;4168596;28;20095;-72
2022/01/26 08:09:54;;;;;;;23.45;9.23;;;;;;;-1.13;100.00;99891.34;4168877;28;20037;-72
2022/01/26 08:11:54;;;;;;;20.75;9.10;;;;;;;-1.09;100.00;99898.94;4170267;28;20040;-72
2022/01/26 08:13:55;;;;;;;23.25;8.43;;;;;;;-1.11;100.00;99882.13;4169131;28;20052;-72
2022/01/26 08:15:57;;;;;;;22.45;9.10;;;;;;;-1.14;100.00;99873.41;4169908;28;20056;-72
2022/01/26 08:17:58;;;;;;;23.77;9.87;;;;;;;-1.02;99.16;99886.75;4168829;28;20045;-72
2022/01/26 08:19:59;;;;;;;24.85;9.20;;;;;;;-1.01;98.66;99899.25;4169910;28;20870;-72
2022/01/26 08:22:01;;;;;;;26.17;10.07;;;;;;;-1.02;98.95;99910.38;4169551;28;20081;-72
2022/01/26 08:24:03;;;;;;;25.95;9.95;;;;;;;-1.01;99.31;99903.88;4169193;28;20049;-72
2022/01/26 08:26:04;;;;;;;21.35;9.75;;;;;;;-0.98;97.92;99900.63;4169688;28;20040;-72
2022/01/26 08:28:13;;;;;;;23.80;10.25;;;;;;;-1.04;98.90;99898.97;4168787;28;20033;-71
2022/01/26 08:30:17;;;;;;;25.08;10.02;;;;;;;-1.06;99.08;99880.25;4169730;28;20047;-72
2022/01/26 08:32:18;;;;;;;22.70;9.85;;;;;;;-1.04;98.67;99883.50;4170136;28;20047;-72
2022/01/26 08:34:18;;;;;;;30.95;14.07;;;;;;;-1.07;99.47;99884.03;4169441;28;20119;-72
2022/01/26 08:36:18;;;;;;;33.63;13.98;;;;;;;-1.07;100.00;99888.66;4169239;28;20060;-72
2022/01/26 08:38:19;;;;;;;33.65;14.80;;;;;;;-1.06;100.00;99891.09;4168944;28;20361;-72
2022/01/26 08:40:20;;;;;;;30.08;11.95;;;;;;;-1.06;100.00;99882.13;4169495;28;20047;-72
2022/01/26 08:42:21;;;;;;;27.67;13.35;;;;;;;-1.07;100.00;99892.19;4168865;28;20045;-71
2022/01/26 08:44:21;;;;;;;25.88;12.18;;;;;;;-1.05;100.00;99897.34;4169523;28;20401;-71
2022/01/26 08:46:22;;;;;;;28.25;10.00;;;;;;;-1.04;100.00;99905.22;4169480;28;20099;-71
2022/01/26 08:48:22;;;;;;;25.63;11.00;;;;;;;-0.97;100.00;99892.22;4168959;28;20076;-71
2022/01/26 08:50:23;;;;;;;26.02;10.80;;;;;;;-0.98;100.00;99893.31;4169281;28;20052;-71
2022/01/26 08:52:23;;;;;;;31.48;12.15;;;;;;;-1.00;100.00;99890.00;4169650;28;20048;-71
2022/01/26 08:54:24;;;;;;;28.40;11.55;;;;;;;-0.95;99.59;99902.81;4169107;28;20410;-72
2022/01/26 08:56:26;;;;;;;26.90;11.38;;;;;;;-1.05;100.00;99900.06;4169299;28;20548;-72
2022/01/26 08:58:26;;;;;;;27.77;11.32;;;;;;;-1.03;100.00;99906.03;4170659;28;20045;-72
2022/01/26 09:00:26;;;;;;;25.77;11.68;;;;;;;-0.99;100.00;99915.31;4172751;28;20048;-72
2022/01/26 09:02:27;;;;;;;26.77;10.60;;;;;;;-0.98;99.82;99917.75;4172734;28;20044;-72
2022/01/26 09:04:27;;;;;;;27.98;10.80;;;;;;;-0.97;100.00;99904.97;4172261;28;20473;-72
2022/01/26 09:06:27;;;;;;;28.65;11.45;;;;;;;-0.97;99.24;99902.25;4173049;28;20228;-72
2022/01/26 09:08:28;;;;;;;25.73;12.30;;;;;;;-0.91;98.88;99906.59;4171690;28;20208;-72
2022/01/26 09:10:33;;;;;;;25.58;9.80;;;;;;;-0.89;98.23;99912.63;4172473;28;20080;-72
2022/01/26 09:12:36;;;;;;;23.77;10.68;;;;;;;-0.91;98.23;99907.44;4172083;28;20053;-72
2022/01/26 09:14:37;;;;;;;27.75;11.23;;;;;;;-0.93;98.74;99914.22;4172538;28;20454;-72
2022/01/26 09:16:38;;;;;;;30.65;13.23;;;;;;;-0.95;98.96;99914.50;4171633;28;20088;-71
2022/01/26 09:18:50;;;;;;;26.50;12.32;;;;;;;-0.90;99.13;99916.41;4172543;28;20132;-71
2022/01/26 09:20:50;;;;;;;26.23;12.23;;;;;;;-0.92;99.66;99908.50;4172443;28;20456;-72
2022/01/26 09:22:51;;;;;;;27.92;13.13;;;;;;;-0.91;100.00;99893.88;4172465;28;20144;-72
2022/01/26 09:24:52;;;;;;;26.08;12.82;;;;;;;-0.89;98.75;99894.41;4172245;28;20095;-72
2022/01/26 09:26:52;;;;;;;29.77;12.90;;;;;;;-0.93;99.71;99904.16;4171510;28;20119;-72
2022/01/26 09:28:53;;;;;;;27.23;11.90;;;;;;;-0.95;100.00;99905.53;4172241;28;20135;-72
2022/01/26 09:30:53;;;;;;;58.47;28.00;;;;;;;-0.90;100.00;99910.97;4171754;28;20086;-72
2022/01/26 09:32:53;;;;;;;33.58;16.13;;;;;;;-0.93;100.00;99914.22;4172388;28;20405;-72
2022/01/26 09:34:54;;;;;;;46.65;22.30;;;;;;;-0.92;100.00;99918.56;4172024;28;20049;-72
2022/01/26 09:36:54;;;;;;;37.00;17.60;;;;;;;-0.90;100.00;99913.69;4170975;28;20049;-71
2022/01/26 09:38:55;;;;;;;36.70;16.80;;;;;;;-0.87;100.00;99903.09;4172287;28;20085;-71
2022/01/26 09:40:55;;;;;;;36.47;17.60;;;;;;;-0.82;100.00;99906.94;4171701;28;20147;-71
2022/01/26 09:42:56;;;;;;;30.75;12.60;;;;;;;-0.82;100.00;99915.09;4170482;28;20110;-72
2022/01/26 09:44:56;;;;;;;33.53;13.18;;;;;;;-0.82;100.00;99913.19;4172046;28;20563;-72
2022/01/26 09:46:57;;;;;;;29.65;14.25;;;;;;;-0.78;99.76;99908.81;4171240;28;20484;-72
2022/01/26 09:48:57;;;;;;;29.45;12.57;;;;;;;-0.74;99.45;99903.69;4172010;28;20369;-72
2022/01/26 09:50:58;;;;;;;32.17;14.05;;;;;;;-0.76;99.43;99898.50;4171950;28;20056;-72
2022/01/26 09:52:58;;;;;;;32.78;12.45;;;;;;;-0.79;100.00;99907.19;4172094;28;20045;-72
2022/01/26 09:55:00;;;;;;;29.23;12.80;;;;;;;-0.74;100.00;99911.84;4171229;28;20315;-72
2022/01/26 09:57:03;;;;;;;25.88;12.25;;;;;;;-0.68;99.64;99906.13;4171114;28;20080;-72
2022/01/26 09:59:03;;;;;;;33.50;14.98;;;;;;;-0.68;99.46;99900.69;4171789;28;20135;-72
2022/01/26 10:01:05;;;;;;;31.17;13.48;;;;;;;-0.79;100.00;99919.97;4171814;28;20360;-72
2022/01/26 10:03:06;;;;;;;31.15;14.25;;;;;;;-0.75;100.00;99912.91;4171660;28;20045;-72
2022/01/26 10:05:10;;;;;;;27.50;12.23;;;;;;;-0.74;100.00;99896.34;4171517;28;20067;-72
2022/01/26 10:17:22;;;;;;;31.77;13.27;;;;;;;-0.80;100.00;99918.34;4170529;28;20311;-72
2022/01/26 10:19:18;;;;;;;27.17;11.82;;;;;;;-0.69;98.17;99899.06;4171236;28;20499;-72
2022/01/26 10:21:18;;;;;;;26.75;12.60;;;;;;;-0.69;97.63;99895.53;4171667;28;20500;-72
2022/01/26 10:23:25;;;;;;;25.30;12.65;;;;;;;-0.68;98.25;99902.59;4171518;28;20042;-72
2022/01/26 10:25:25;;;;;;;27.10;12.48;;;;;;;-0.72;97.94;99915.91;4171268;28;20289;-72
2022/01/26 10:27:38;;;;;;;30.27;13.40;;;;;;;-0.75;97.99;99912.91;4170420;28;20075;-72
2022/01/26 10:29:45;;;;;;;25.75;12.02;;;;;;;-0.79;97.79;99906.38;4171555;28;20559;-72
2022/01/26 10:31:45;;;;;;;25.80;12.48;;;;;;;-0.81;98.53;99903.13;4171511;28;20658;-72
2022/01/26 10:34:00;;;;;;;30.13;14.52;;;;;;;-0.79;98.53;99909.09;4171417;28;20057;-72
2022/01/26 10:36:01;;;;;;;26.67;12.70;;;;;;;-0.77;97.77;99902.31;4171005;28;20065;-72
2022/01/26 10:38:01;;;;;;;26.60;12.85;;;;;;;-0.77;97.84;99899.59;4170558;28;20048;-72
2022/01/26 10:40:16;;;;;;;28.70;13.15;;;;;;;-0.77;97.18;99887.91;4170579;28;20035;-72
2022/01/26 10:42:20;;;;;;;25.45;11.80;;;;;;;-0.78;97.43;99886.28;4171186;28;20040;-72
2022/01/26 10:44:36;;;;;;;24.55;12.30;;;;;;;-0.78;97.19;99884.38;4170911;28;20037;-72
2022/01/26 10:46:41;;;;;;;27.60;12.77;;;;;;;-0.76;96.77;99874.03;4169806;28;20041;-72
2022/01/26 10:48:55;;;;;;;25.80;12.55;;;;;;;-0.77;96.59;99882.47;4171199;28;20863;-72
2022/01/26 10:53:19;;;;;;;25.98;12.32;;;;;;;-0.80;95.77;99880.28;4170733;28;20306;-71
2022/01/26 10:55:22;;;;;;;29.63;11.88;;;;;;;-0.75;95.26;99891.97;4171184;28;20068;-71
2022/01/26 10:57:24;;;;;;;27.25;12.85;;;;;;;-0.86;96.38;99882.19;4170017;28;20076;-71
2022/01/26 10:59:24;;;;;;;32.95;13.35;;;;;;;-0.86;96.44;99890.31;4170641;28;20080;-71
2022/01/26 11:01:25;;;;;;;29.42;12.40;;;;;;;-0.80;95.63;99891.16;4170276;28;20063;-71
2022/01/26 11:03:26;;;;;;;25.50;11.98;;;;;;;-0.79;95.62;99885.44;4171282;28;20044;-71
2022/01/26 11:05:26;;;;;;;25.60;11.25;;;;;;;-0.79;96.07;99890.88;4170753;28;20059;-71
2022/01/26 11:07:45;;;;;;;28.05;11.90;;;;;;;-0.87;95.60;99881.38;4169486;28;20477;-71
2022/01/26 11:09:47;;;;;;;24.17;12.50;;;;;;;-0.86;95.28;99879.47;4169935;28;20102;-71
2022/01/26 11:11:58;;;;;;;34.28;14.65;;;;;;;-0.86;95.67;99874.84;4170346;28;20049;-71
2022/01/26 11:13:59;;;;;;;30.52;12.10;;;;;;;-0.88;96.74;99873.47;4170904;28;20102;-72
2022/01/26 11:16:10;;;;;;;33.28;15.07;;;;;;;-0.89;96.80;99878.09;4170407;28;20057;-72
2022/01/26 11:18:20;;;;;;;29.23;12.43;;;;;;;-0.79;95.93;99890.88;4169586;28;20084;-72
2022/01/26 11:20:31;;;;;;;29.35;13.43;;;;;;;-0.83;96.31;99899.84;4170481;28;20037;-72
2022/01/26 11:22:32;;;;;;;33.70;14.95;;;;;;;-0.84;96.61;99899.03;4170366;28;20127;-72
2022/01/26 11:24:45;;;;;;;25.92;11.98;;;;;;;-0.90;96.50;99895.50;4170746;28;20049;-72
2022/01/26 11:26:47;;;;;;;;;;;;;;;-0.92;96.95;99891.41;4169861;28;20068;-71
2022/01/26 11:28:48;;;;;;;27.33;12.47;;;;;;;-0.91;96.79;99899.31;4170658;28;19920;-72
2022/01/26 11:30:50;;;;;;;30.15;13.88;;;;;;;-0.96;97.75;99906.63;4170198;28;20049;-72
2022/01/26 11:32:58;;;;;;;30.33;13.32;;;;;;;-0.94;97.58;99910.69;4170524;28;20049;-72